Time;durP1;ratioP1;P1;durP2;ratioP2;P2;SDS_P1;SDS_P2;PMS_P1;PMS_P2;Temp;Humidity;BMP_temperature;BMP_pressure;BME280_temperature;BME280_humidity;BME280_pressure;Samples;Min_cycle;Max_cycle;Signal;HPM_P1;HPM_P2
2024/02/02 00:00:00;;;;;;;5.35;2.03;;;6.90;90.50;;;;;;4991029;28;20045;-66
2024/02/02 00:02:25;;;;;;;8.00;2.50;;;6.90;90.50;;;;;;4989038;28;20030;-67
2024/02/02 00:04:51;;;;;;;6.38;2.20;;;6.90;90.90;;;;;;4989940;28;20113;-66
2024/02/02 00:07:17;;;;;;;5.53;1.90;;;6.90;90.60;;;;;;4989530;28;20022;-65
2024/02/02 00:09:44;;;;;;;3.20;1.73;;;6.90;90.60;;;;;;4994634;28;20030;-66
2024/02/02 00:12:11;;;;;;;6.70;2.30;;;6.90;90.60;;;;;;4988827;28;20061;-66
2024/02/02 00:14:37;;;;;;;6.43;2.55;;;7.00;90.60;;;;;;4988806;28;20054;-67
2024/02/02 00:17:04;;;;;;;7.80;2.40;;;6.90;90.60;;;;;;4985393;28;20023;-66
2024/02/02 00:19:30;;;;;;;4.75;1.77;;;6.90;90.60;;;;;;4994240;28;20027;-66
2024/02/02 00:21:56;;;;;;;5.13;2.00;;;6.90;90.60;;;;;;4990003;28;20503;-66
2024/02/02 00:24:21;;;;;;;12.02;2.97;;;6.90;90.60;;;;;;4987585;28;20034;-66
2024/02/02 00:26:47;;;;;;;4.88;2.20;;;6.90;90.70;;;;;;4988661;28;20116;-67
2024/02/02 00:29:13;;;;;;;10.10;2.95;;;6.90;90.70;;;;;;4992524;28;20117;-66
2024/02/02 00:31:38;;;;;;;9.82;2.92;;;6.90;90.70;;;;;;4990743;28;20026;-66
2024/02/02 00:34:04;;;;;;;9.13;2.50;;;6.80;90.80;;;;;;4986763;28;20030;-66
2024/02/02 00:36:30;;;;;;;6.28;2.40;;;6.80;90.80;;;;;;4990828;28;20170;-66
2024/02/02 00:38:55;;;;;;;5.53;2.17;;;6.90;90.80;;;;;;4997138;28;20036;-67
2024/02/02 00:41:21;;;;;;;5.97;2.42;;;6.90;90.80;;;;;;4993290;28;20093;-66
2024/02/02 00:43:46;;;;;;;8.23;2.70;;;6.80;90.80;;;;;;4992139;28;20088;-66
2024/02/02 00:46:12;;;;;;;4.47;2.20;;;6.80;90.90;;;;;;4990551;28;20034;-67
2024/02/02 00:48:38;;;;;;;6.88;2.70;;;6.90;90.90;;;;;;4991747;28;20041;-67
2024/02/02 00:51:03;;;;;;;3.92;2.10;;;6.90;90.90;;;;;;4988121;28;20034;-67
2024/02/02 00:53:30;;;;;;;4.40;2.30;;;6.90;90.90;;;;;;4990718;28;20068;-67
2024/02/02 00:55:55;;;;;;;6.93;2.70;;;6.90;90.90;;;;;;4988566;28;20034;-67
2024/02/02 00:58:21;;;;;;;6.63;2.25;;;6.90;90.90;;;;;;4987697;28;20038;-67
2024/02/02 01:00:46;;;;;;;7.00;2.88;;;7.00;90.90;;;;;;4987897;28;20023;-67
2024/02/02 01:03:12;;;;;;;5.43;2.38;;;6.90;90.90;;;;;;4990570;28;20408;-68
2024/02/02 01:05:38;;;;;;;6.32;2.55;;;6.90;90.90;;;;;;4990890;28;20194;-68
2024/02/02 01:08:04;;;;;;;4.97;2.20;;;7.00;90.90;;;;;;4987814;28;20036;-68
2024/02/02 01:10:30;;;;;;;6.35;2.53;;;6.90;90.90;;;;;;4985672;28;20030;-67
2024/02/02 01:12:56;;;;;;;4.45;2.20;;;6.90;90.90;;;;;;4987321;28;20024;-67
2024/02/02 01:15:22;;;;;;;7.05;2.65;;;7.00;90.90;;;;;;4991605;28;20030;-68
2024/02/02 01:17:48;;;;;;;8.55;2.65;;;6.90;90.90;;;;;;4992909;28;20021;-67
2024/02/02 01:20:17;;;;;;;11.02;3.67;;;6.90;90.90;;;;;;4990064;28;20061;-68
2024/02/02 01:22:43;;;;;;;6.07;3.00;;;6.90;91.00;;;;;;4989873;28;20023;-69
2024/02/02 01:25:09;;;;;;;6.90;2.70;;;7.00;91.00;;;;;;4987139;28;20033;-68
2024/02/02 01:27:35;;;;;;;8.25;2.65;;;7.00;91.00;;;;;;4987880;28;20026;-67
2024/02/02 01:30:02;;;;;;;6.63;2.95;;;6.90;91.10;;;;;;4989335;28;20084;-67
2024/02/02 01:32:27;;;;;;;5.68;2.58;;;6.90;91.10;;;;;;4991934;28;20110;-66
2024/02/02 01:34:53;;;;;;;7.25;2.50;;;6.90;91.10;;;;;;4990180;28;20109;-66
2024/02/02 01:37:19;;;;;;;8.00;2.50;;;7.00;91.10;;;;;;4989988;28;20397;-67
2024/02/02 01:39:44;;;;;;;7.25;2.60;;;7.00;91.10;;;;;;4990308;28;20057;-68
2024/02/02 01:42:10;;;;;;;6.65;2.10;;;7.00;91.10;;;;;;4989193;28;20388;-67
2024/02/02 01:44:37;;;;;;;4.20;2.00;;;7.00;91.10;;;;;;4989044;28;20425;-69
2024/02/02 01:47:03;;;;;;;6.80;2.35;;;7.10;91.10;;;;;;4995108;28;20034;-68
2024/02/02 01:49:28;;;;;;;4.00;2.15;;;7.10;91.10;;;;;;4990447;28;20089;-68
2024/02/02 01:51:55;;;;;;;5.15;2.65;;;7.10;91.10;;;;;;4990882;28;20026;-69
2024/02/02 01:54:21;;;;;;;4.78;2.20;;;7.10;91.10;;;;;;4989975;28;20516;-67
2024/02/02 01:56:47;;;;;;;7.85;2.45;;;7.10;91.10;;;;;;4989658;28;20031;-67
2024/02/02 01:59:13;;;;;;;5.97;2.30;;;7.10;91.20;;;;;;4986065;28;20465;-67
2024/02/02 02:01:40;;;;;;;8.27;3.15;;;7.10;91.10;;;;;;4990540;28;20602;-67
2024/02/02 02:04:06;;;;;;;7.03;2.97;;;7.10;91.20;;;;;;4987449;28;20468;-67
2024/02/02 02:06:32;;;;;;;6.07;2.67;;;7.10;91.20;;;;;;4986668;28;20039;-68
2024/02/02 02:08:58;;;;;;;8.65;2.60;;;7.10;91.20;;;;;;4988159;28;20039;-67
2024/02/02 02:11:23;;;;;;;4.70;2.10;;;7.10;91.20;;;;;;4987747;28;20105;-68
2024/02/02 02:13:49;;;;;;;2.88;1.90;;;7.10;91.20;;;;;;4987112;28;20088;-67
2024/02/02 02:16:14;;;;;;;5.47;2.22;;;7.10;91.20;;;;;;4988055;28;20440;-67
2024/02/02 02:18:41;;;;;;;5.38;1.80;;;7.10;91.20;;;;;;4990042;28;20072;-68
2024/02/02 02:21:26;;;;;;;3.65;1.80;;;7.10;91.20;;;;;;4987517;28;20137;-67
2024/02/02 02:23:52;;;;;;;4.00;1.75;;;7.10;91.30;;;;;;4987369;28;20034;-67
2024/02/02 02:26:19;;;;;;;7.00;1.90;;;7.20;91.30;;;;;;4987454;28;20088;-68
2024/02/02 02:28:45;;;;;;;5.15;2.00;;;7.20;91.30;;;;;;4987603;28;20034;-67
2024/02/02 02:31:14;;;;;;;6.63;2.40;;;7.20;91.30;;;;;;4990578;28;20531;-67
2024/02/02 02:33:41;;;;;;;5.38;2.13;;;7.20;91.30;;;;;;4990705;28;20022;-66
2024/02/02 02:36:08;;;;;;;4.68;2.10;;;7.20;91.30;;;;;;4987645;28;20117;-67
2024/02/02 02:38:34;;;;;;;6.78;2.33;;;7.20;91.30;;;;;;4989572;28;20025;-66
2024/02/02 02:41:00;;;;;;;6.13;2.08;;;7.20;91.20;;;;;;4989727;28;20050;-66
2024/02/02 02:43:30;;;;;;;4.53;2.05;;;7.20;91.20;;;;;;4991712;28;20018;-66
2024/02/02 02:45:56;;;;;;;6.72;2.55;;;7.20;91.20;;;;;;4994420;28;20030;-66
2024/02/02 02:48:22;;;;;;;4.68;2.00;;;7.20;91.20;;;;;;4992204;28;20030;-66
2024/02/02 02:50:48;;;;;;;5.05;1.65;;;7.20;91.20;;;;;;4991373;28;20018;-66
2024/02/02 02:53:14;;;;;;;3.90;1.88;;;7.20;91.20;;;;;;4990060;28;20540;-66
2024/02/02 02:55:40;;;;;;;7.88;2.70;;;7.30;91.20;;;;;;4994517;28;20392;-66
2024/02/02 02:58:05;;;;;;;5.20;2.42;;;7.30;91.10;;;;;;4991502;28;20496;-67
2024/02/02 03:00:31;;;;;;;7.50;2.72;;;7.30;91.10;;;;;;4990389;28;20045;-66
2024/02/02 03:03:00;;;;;;;4.95;2.20;;;7.20;91.10;;;;;;4992278;28;20065;-66
2024/02/02 03:05:28;;;;;;;6.22;2.30;;;7.20;91.10;;;;;;4994363;28;20032;-66
2024/02/02 03:07:54;;;;;;;5.10;1.90;;;7.20;91.20;;;;;;4992900;28;20113;-65
2024/02/02 03:10:27;;;;;;;7.03;2.47;;;7.20;91.20;;;;;;4992600;28;20113;-67
2024/02/02 03:12:53;;;;;;;9.43;3.88;;;7.20;91.20;;;;;;4991985;28;20112;-66
2024/02/02 03:15:21;;;;;;;8.10;2.83;;;7.20;91.20;;;;;;4990299;28;20485;-67
2024/02/02 03:17:48;;;;;;;7.80;3.00;;;7.20;91.20;;;;;;4991149;28;20532;-66
2024/02/02 03:20:14;;;;;;;14.85;4.00;;;7.20;91.20;;;;;;4995643;28;20050;-67
2024/02/02 03:22:40;;;;;;;13.10;3.53;;;7.20;91.20;;;;;;4996448;28;20030;-66
2024/02/02 03:25:06;;;;;;;7.57;3.83;;;7.20;91.20;;;;;;4991746;28;20089;-66
2024/02/02 03:27:32;;;;;;;10.90;4.10;;;7.10;91.10;;;;;;4991121;28;20034;-65
2024/02/02 03:29:58;;;;;;;10.32;4.13;;;7.10;91.20;;;;;;4992621;28;20031;-65
2024/02/02 03:32:23;;;;;;;9.82;4.63;;;7.10;91.20;;;;;;4994715;28;20037;-65
2024/02/02 03:34:49;;;;;;;7.80;3.42;;;7.10;91.20;;;;;;4994751;28;20061;-68
2024/02/02 03:37:15;;;;;;;13.85;4.25;;;7.10;91.20;;;;;;4990012;28;20027;-69
2024/02/02 03:39:41;;;;;;;16.45;4.43;;;7.10;91.20;;;;;;4997331;28;20161;-68
2024/02/02 03:42:07;;;;;;;9.18;3.42;;;7.10;91.20;;;;;;4989861;28;20531;-68
2024/02/02 03:44:32;;;;;;;8.27;3.47;;;7.10;91.20;;;;;;4993686;28;20117;-66
2024/02/02 03:46:58;;;;;;;7.72;3.10;;;7.10;91.20;;;;;;4989644;28;20030;-67
2024/02/02 03:49:24;;;;;;;4.18;2.33;;;7.00;91.20;;;;;;4990308;28;20489;-66
2024/02/02 03:51:49;;;;;;;7.88;3.20;;;7.00;91.20;;;;;;4993094;28;20391;-67
2024/02/02 03:54:15;;;;;;;10.45;4.15;;;7.00;91.20;;;;;;4986733;28;20037;-67
2024/02/02 03:56:42;;;;;;;8.70;3.58;;;7.00;91.20;;;;;;4994556;28;20512;-67
2024/02/02 03:59:09;;;;;;;8.55;3.80;;;7.00;91.20;;;;;;4986801;28;20026;-68
2024/02/02 04:01:34;;;;;;;7.97;3.50;;;7.00;91.30;;;;;;4987330;28;20015;-67
2024/02/02 04:04:00;;;;;;;8.73;3.42;;;7.00;91.20;;;;;;4991352;28;20033;-67
2024/02/02 04:06:27;;;;;;;10.00;3.63;;;7.00;91.30;;;;;;4994114;28;20026;-67
2024/02/02 04:08:52;;;;;;;5.88;3.30;;;7.00;91.20;;;;;;4991827;28;20041;-68
2024/02/02 04:11:18;;;;;;;10.38;3.53;;;7.00;91.30;;;;;;4990127;28;20026;-68
2024/02/02 04:13:44;;;;;;;7.97;3.10;;;7.00;91.20;;;;;;4992230;28;20032;-68
2024/02/02 04:16:10;;;;;;;12.70;4.38;;;6.90;91.20;;;;;;4991379;28;20041;-68
2024/02/02 04:18:35;;;;;;;7.20;2.95;;;6.90;91.30;;;;;;4987824;28;20057;-68
2024/02/02 04:21:01;;;;;;;7.75;3.25;;;6.90;91.30;;;;;;4987383;28;20023;-69
2024/02/02 04:23:27;;;;;;;5.95;3.08;;;6.90;91.30;;;;;;4996419;28;20038;-69
2024/02/02 04:25:53;;;;;;;9.82;3.75;;;6.90;91.20;;;;;;4989600;28;20120;-68
2024/02/02 04:28:18;;;;;;;7.05;3.78;;;6.90;91.30;;;;;;4987033;28;20481;-66
2024/02/02 04:30:44;;;;;;;8.77;3.30;;;6.90;91.30;;;;;;4992985;28;20484;-67
2024/02/02 04:33:10;;;;;;;7.53;3.15;;;6.90;91.30;;;;;;4992036;28;20469;-68
2024/02/02 04:35:35;;;;;;;5.65;3.00;;;6.90;91.20;;;;;;4993795;28;20077;-68
2024/02/02 04:38:02;;;;;;;7.95;3.35;;;6.90;91.30;;;;;;4990652;28;20117;-68
2024/02/02 04:40:28;;;;;;;5.18;2.90;;;6.90;91.30;;;;;;4992452;28;20058;-68
2024/02/02 04:42:54;;;;;;;8.68;3.22;;;6.90;91.20;;;;;;4995135;28;20053;-68
2024/02/02 04:45:20;;;;;;;6.80;2.70;;;7.00;91.20;;;;;;4989236;28;20077;-67
2024/02/02 04:47:45;;;;;;;6.35;2.83;;;7.00;91.20;;;;;;4989451;28;20105;-67
2024/02/02 04:50:11;;;;;;;5.90;2.95;;;7.00;91.20;;;;;;4989253;28;20022;-68
2024/02/02 04:52:36;;;;;;;9.13;3.20;;;6.90;91.10;;;;;;4994897;28;20030;-68
2024/02/02 04:55:02;;;;;;;6.97;3.05;;;6.90;91.10;;;;;;4991653;28;20030;-66
2024/02/02 04:57:28;;;;;;;7.65;2.70;;;7.00;91.20;;;;;;4992013;28;20050;-66
2024/02/02 04:59:56;;;;;;;7.93;2.92;;;7.00;91.10;;;;;;4994183;28;20034;-67
2024/02/02 05:02:22;;;;;;;8.68;3.70;;;6.90;91.10;;;;;;4988952;28;20062;-67
2024/02/02 05:04:47;;;;;;;6.63;3.17;;;6.90;91.10;;;;;;4991913;28;20450;-66
2024/02/02 05:07:14;;;;;;;7.15;2.70;;;6.90;91.10;;;;;;4984071;28;20038;-68
2024/02/02 05:09:39;;;;;;;8.60;2.63;;;6.90;91.10;;;;;;4986501;28;20492;-67
2024/02/02 05:12:05;;;;;;;7.20;2.70;;;6.90;91.10;;;;;;4991324;28;20029;-66
2024/02/02 05:14:31;;;;;;;6.60;2.30;;;7.00;91.10;;;;;;4989117;28;20026;-66
2024/02/02 05:16:56;;;;;;;6.38;2.65;;;7.00;91.10;;;;;;4991236;28;20034;-66
2024/02/02 05:19:22;;;;;;;6.63;2.78;;;6.90;91.00;;;;;;4996120;28;20388;-67
2024/02/02 05:21:48;;;;;;;9.38;2.70;;;7.00;91.00;;;;;;4996613;28;20026;-67
2024/02/02 05:24:13;;;;;;;7.72;2.75;;;7.00;91.00;;;;;;4991885;28;20084;-67
2024/02/02 05:26:39;;;;;;;6.88;3.17;;;7.00;91.00;;;;;;4991230;28;20022;-67
2024/02/02 05:29:04;;;;;;;5.70;2.33;;;6.90;91.00;;;;;;4989671;28;20049;-66
2024/02/02 05:31:30;;;;;;;5.88;2.75;;;6.90;91.00;;;;;;4994338;28;20027;-66
2024/02/02 05:33:55;;;;;;;6.97;2.40;;;6.90;91.10;;;;;;4992116;28;20022;-66
2024/02/02 05:36:21;;;;;;;9.27;2.75;;;6.90;91.10;;;;;;4990002;28;20640;-66
2024/02/02 05:38:47;;;;;;;6.78;2.60;;;6.90;91.10;;;;;;4989340;28;20145;-66
2024/02/02 05:41:12;;;;;;;5.85;2.53;;;6.90;91.10;;;;;;4990691;28;20480;-66
2024/02/02 05:43:38;;;;;;;7.60;2.40;;;6.90;91.10;;;;;;4990318;28;20075;-66
2024/02/02 05:46:05;;;;;;;5.15;2.40;;;6.90;91.10;;;;;;4988170;28;20105;-66
2024/02/02 05:48:30;;;;;;;4.45;2.05;;;6.90;91.10;;;;;;4992585;28;20169;-67
2024/02/02 05:50:56;;;;;;;8.88;2.30;;;6.90;91.10;;;;;;4988171;28;20108;-67
2024/02/02 05:53:22;;;;;;;9.90;2.53;;;7.00;91.20;;;;;;4987294;28;20026;-67
2024/02/02 05:55:47;;;;;;;7.07;2.35;;;7.00;91.20;;;;;;4999411;28;20032;-66
2024/02/02 05:58:13;;;;;;;6.65;2.25;;;7.00;91.20;;;;;;4989550;28;20026;-66
2024/02/02 06:00:39;;;;;;;5.28;2.17;;;7.00;91.20;;;;;;4995567;28;20473;-67
2024/02/02 06:03:05;;;;;;;6.45;2.63;;;7.00;91.30;;;;;;4994093;28;20026;-66
2024/02/02 06:05:32;;;;;;;5.43;2.30;;;7.00;91.20;;;;;;4989385;28;20042;-67
2024/02/02 06:08:01;;;;;;;6.57;2.20;;;6.90;91.20;;;;;;4995336;28;20018;-66
2024/02/02 06:10:27;;;;;;;4.93;1.98;;;6.90;91.30;;;;;;4988170;28;20145;-66
2024/02/02 06:12:53;;;;;;;4.07;1.60;;;7.00;91.30;;;;;;4989663;28;20105;-67
2024/02/02 06:15:19;;;;;;;9.35;1.80;;;6.90;91.20;;;;;;4996304;28;20026;-66
2024/02/02 06:17:45;;;;;;;8.82;2.10;;;7.00;91.30;;;;;;4994252;28;20033;-66
2024/02/02 06:20:11;;;;;;;6.10;2.00;;;7.00;91.30;;;;;;4994577;28;20034;-66
2024/02/02 06:22:36;;;;;;;5.97;1.80;;;7.00;91.30;;;;;;4998708;28;20038;-66
2024/02/02 06:25:02;;;;;;;6.30;1.85;;;7.00;91.30;;;;;;5001352;28;20084;-66
2024/02/02 06:27:30;;;;;;;5.43;2.20;;;7.00;91.30;;;;;;5003872;28;20026;-65
2024/02/02 06:29:57;;;;;;;7.82;2.20;;;7.00;91.30;;;;;;4993379;28;20034;-66
2024/02/02 06:32:23;;;;;;;8.02;2.47;;;7.00;91.40;;;;;;5006375;28;20056;-67
2024/02/02 06:34:55;;;;;;;8.07;2.60;;;7.00;91.40;;;;;;4999923;28;20033;-67
2024/02/02 06:37:25;;;;;;;7.97;3.03;;;7.00;91.40;;;;;;5003050;28;20449;-67
2024/02/02 06:39:52;;;;;;;7.88;2.58;;;7.00;91.50;;;;;;4996713;28;20033;-67
2024/02/02 06:42:22;;;;;;;9.35;2.35;;;7.00;91.50;;;;;;5000323;28;20049;-67
2024/02/02 06:44:49;;;;;;;5.90;1.92;;;7.00;91.50;;;;;;4999241;28;20022;-67
2024/02/02 06:47:15;;;;;;;5.65;2.20;;;6.90;91.50;;;;;;4992788;28;20030;-66
2024/02/02 06:49:41;;;;;;;9.00;2.30;;;7.00;91.60;;;;;;4996900;28;20033;-67
2024/02/02 06:52:06;;;;;;;6.65;2.10;;;7.00;91.50;;;;;;4991738;28;20036;-66
2024/02/02 06:54:32;;;;;;;9.88;3.10;;;7.00;91.50;;;;;;4995297;28;20030;-66
2024/02/02 06:56:58;;;;;;;7.20;2.40;;;7.00;91.50;;;;;;4993917;28;20472;-66
2024/02/02 06:59:23;;;;;;;6.20;2.30;;;7.00;91.60;;;;;;4996464;28;20017;-66
2024/02/02 07:01:49;;;;;;;5.82;2.00;;;7.00;91.60;;;;;;4991790;28;20026;-66
2024/02/02 07:04:15;;;;;;;6.43;2.22;;;7.00;91.60;;;;;;4992608;28;20504;-66
2024/02/02 07:06:41;;;;;;;5.38;1.80;;;7.00;91.70;;;;;;4991184;28;20503;-66
2024/02/02 07:09:19;;;;;;;6.05;2.00;;;7.00;91.60;;;;;;4993346;28;20031;-67
2024/02/02 07:11:50;;;;;;;7.55;2.40;;;7.10;91.60;;;;;;4994655;28;20125;-67
2024/02/02 07:14:42;;;;;;;10.55;3.00;;;7.10;91.60;;;;;;4992498;28;20117;-67
2024/02/02 07:17:25;;;;;;;8.18;2.40;;;7.10;91.70;;;;;;4989655;28;20040;-67
2024/02/02 07:19:52;;;;;;;7.68;2.25;;;7.10;91.70;;;;;;4995614;28;20037;-67
2024/02/02 07:22:39;;;;;;;8.35;2.70;;;7.10;91.70;;;;;;4993446;28;20035;-66
2024/02/02 07:25:18;;;;;;;15.75;3.53;;;7.10;91.80;;;;;;4989875;28;20034;-68
2024/02/02 07:27:56;;;;;;;8.80;2.58;;;7.00;91.80;;;;;;4987429;28;20120;-68
2024/02/02 07:30:55;;;;;;;7.18;2.88;;;7.00;91.80;;;;;;4995337;28;20026;-66
2024/02/02 07:33:33;;;;;;;11.35;3.35;;;7.10;91.90;;;;;;4988336;28;20073;-67
2024/02/02 07:36:00;;;;;;;9.45;2.78;;;7.00;91.90;;;;;;4992261;28;20041;-68
2024/02/02 07:38:38;;;;;;;8.15;3.05;;;7.10;91.90;;;;;;4989796;28;20018;-68
2024/02/02 07:41:06;;;;;;;7.20;2.80;;;7.10;91.90;;;;;;4995548;28;20039;-68
2024/02/02 07:43:33;;;;;;;9.35;2.35;;;7.10;92.00;;;;;;4993651;28;20113;-68
2024/02/02 07:46:05;;;;;;;9.82;3.35;;;7.20;92.00;;;;;;4994866;28;20029;-68
2024/02/02 07:48:31;;;;;;;6.63;2.80;;;7.20;92.00;;;;;;4980612;28;20088;-68
2024/02/02 07:50:57;;;;;;;8.82;3.38;;;7.20;92.00;;;;;;4984780;28;20054;-68
2024/02/02 07:53:23;;;;;;;11.93;3.08;;;7.20;92.00;;;;;;4983436;28;20042;-69
2024/02/02 07:55:49;;;;;;;7.05;3.22;;;7.20;92.00;;;;;;4988222;28;20046;-69
2024/02/02 07:58:16;;;;;;;7.35;2.80;;;7.30;92.00;;;;;;4990694;28;20305;-69
2024/02/02 08:00:42;;;;;;;7.50;3.30;;;7.30;91.90;;;;;;4985725;28;20030;-68
2024/02/02 08:03:07;;;;;;;10.10;3.38;;;7.30;92.00;;;;;;4983980;28;20032;-68
2024/02/02 08:05:37;;;;;;;5.28;2.55;;;7.30;92.00;;;;;;4984524;28;20117;-68
2024/02/02 08:08:04;;;;;;;7.97;3.40;;;7.30;92.00;;;;;;4984794;28;20022;-68
2024/02/02 08:10:30;;;;;;;5.30;2.53;;;7.40;91.90;;;;;;4986674;28;20030;-68
2024/02/02 08:12:55;;;;;;;9.98;3.60;;;7.40;91.90;;;;;;4977429;28;20083;-67
2024/02/02 08:15:21;;;;;;;10.38;3.83;;;7.50;91.90;;;;;;5012806;28;20529;-68
2024/02/02 08:17:47;;;;;;;8.80;3.92;;;7.50;91.90;;;;;;4987082;28;20042;-67
2024/02/02 08:20:14;;;;;;;10.63;4.32;;;7.50;91.90;;;;;;4984012;28;20034;-67
2024/02/02 08:22:40;;;;;;;15.52;5.22;;;7.50;92.00;;;;;;4987952;28;20034;-68
2024/02/02 08:25:05;;;;;;;10.82;4.72;;;7.50;92.00;;;;;;4990486;28;20097;-67
2024/02/02 08:27:34;;;;;;;12.85;4.90;;;7.50;92.10;;;;;;4987276;28;20118;-67
2024/02/02 08:30:00;;;;;;;11.13;4.35;;;7.50;92.10;;;;;;4992975;28;20084;-68
2024/02/02 08:32:25;;;;;;;8.90;4.45;;;7.50;92.10;;;;;;4993620;28;20026;-68
2024/02/02 08:34:51;;;;;;;10.73;4.25;;;7.50;92.10;;;;;;4985856;28;20026;-68
2024/02/02 08:37:17;;;;;;;6.50;3.58;;;7.50;92.10;;;;;;4987571;28;20101;-68
2024/02/02 08:39:44;;;;;;;8.05;4.07;;;7.60;92.20;;;;;;4989639;28;20522;-68
2024/02/02 08:42:20;;;;;;;11.43;5.28;;;7.60;92.20;;;;;;4992861;28;20209;-68
2024/02/02 08:44:45;;;;;;;10.38;4.70;;;7.60;92.20;;;;;;4991581;28;20081;-69
2024/02/02 08:47:11;;;;;;;11.25;4.68;;;7.60;92.20;;;;;;4985670;28;20046;-69
2024/02/02 08:49:55;;;;;;;14.93;4.82;;;7.60;92.20;;;;;;5006841;28;20025;-69
2024/02/02 08:52:38;;;;;;;11.27;4.30;;;7.70;92.30;;;;;;4991294;28;20029;-68
2024/02/02 08:55:37;;;;;;;6.03;2.90;;;7.70;92.30;;;;;;4983727;28;20112;-69
2024/02/02 08:58:08;;;;;;;12.27;5.10;;;7.80;92.30;;;;;;4989878;28;20026;-69
2024/02/02 09:00:40;;;;;;;14.18;5.28;;;7.70;92.30;;;;;;4989357;28;20038;-68
2024/02/02 09:03:25;;;;;;;12.68;5.13;;;7.80;92.30;;;;;;4986873;28;20034;-68
2024/02/02 09:05:59;;;;;;;12.48;5.20;;;7.80;92.40;;;;;;4990245;28;20030;-69
2024/02/02 09:08:33;;;;;;;9.88;4.75;;;7.80;92.40;;;;;;4991773;28;20034;-69
2024/02/02 09:10:58;;;;;;;10.55;4.32;;;7.80;92.40;;;;;;4987536;28;20595;-69
2024/02/02 09:13:26;;;;;;;9.10;4.40;;;7.80;92.40;;;;;;4987278;28;20098;-68
2024/02/02 09:15:52;;;;;;;7.25;3.60;;;7.90;92.50;;;;;;4983258;28;20015;-68
2024/02/02 09:18:39;;;;;;;10.40;4.47;;;7.90;92.40;;;;;;4986145;28;20398;-69
2024/02/02 09:21:10;;;;;;;15.43;5.40;;;7.90;92.40;;;;;;4988819;28;20102;-67
2024/02/02 09:23:36;;;;;;;10.70;4.75;;;8.00;92.40;;;;;;4990094;28;20054;-68
2024/02/02 09:26:11;;;;;;;15.13;5.10;;;7.90;92.40;;;;;;4987945;28;20061;-68
2024/02/02 09:28:40;;;;;;;10.73;4.57;;;8.00;92.60;;;;;;4980384;28;20034;-68
2024/02/02 09:31:07;;;;;;;11.50;5.10;;;7.90;92.60;;;;;;4987530;28;20100;-69
2024/02/02 09:33:41;;;;;;;11.15;5.10;;;7.90;92.70;;;;;;4984238;28;20030;-68
2024/02/02 09:36:07;;;;;;;7.72;4.20;;;7.90;92.70;;;;;;4988981;28;20026;-68
2024/02/02 09:38:33;;;;;;;7.63;3.42;;;8.00;92.80;;;;;;4985920;28;20374;-67
2024/02/02 09:41:05;;;;;;;7.45;3.33;;;8.00;92.80;;;;;;4988176;28;20109;-67
2024/02/02 09:44:02;;;;;;;11.25;4.53;;;8.10;92.80;;;;;;4983889;28;20062;-67
2024/02/02 09:46:35;;;;;;;9.65;5.18;;;8.10;92.80;;;;;;4989941;28;20042;-67
2024/02/02 09:49:28;;;;;;;12.88;5.13;;;8.10;92.80;;;;;;4985937;28;20034;-70
2024/02/02 09:52:15;;;;;;;11.93;5.45;;;8.10;92.80;;;;;;4986229;28;20080;-67
2024/02/02 09:55:23;;;;;;;11.48;4.80;;;8.10;92.80;;;;;;5010624;28;20034;-67
2024/02/02 09:58:01;;;;;;;11.05;4.20;;;8.20;92.80;;;;;;4983124;28;20043;-68
2024/02/02 10:00:56;;;;;;;12.60;4.95;;;8.20;92.90;;;;;;4982246;28;20038;-69
2024/02/02 10:03:59;;;;;;;7.43;3.80;;;8.20;92.90;;;;;;4982625;28;20034;-67
2024/02/02 10:06:33;;;;;;;13.55;4.47;;;8.30;92.90;;;;;;4982105;28;20033;-69
2024/02/02 10:09:21;;;;;;;12.63;4.82;;;8.30;92.90;;;;;;4993825;28;20026;-68
2024/02/02 10:12:06;;;;;;;12.73;5.90;;;8.40;93.00;;;;;;4981907;28;20514;-68
2024/02/02 10:14:50;;;;;;;12.50;4.50;;;8.40;93.00;;;;;;4985727;28;20037;-69
2024/02/02 10:17:38;;;;;;;10.80;4.50;;;8.40;92.90;;;;;;4984880;28;20041;-69
2024/02/02 10:20:20;;;;;;;8.98;4.20;;;8.40;92.90;;;;;;4984954;28;20389;-68
2024/02/02 10:23:22;;;;;;;11.75;4.13;;;8.50;93.00;;;;;;5017258;28;20246;-68
2024/02/02 10:26:16;;;;;;;11.43;4.82;;;8.50;93.00;;;;;;4989129;28;20026;-69
2024/02/02 10:29:17;;;;;;;12.43;5.22;;;8.50;93.00;;;;;;4988923;28;20096;-68
2024/02/02 10:32:02;;;;;;;12.18;4.15;;;8.60;93.00;;;;;;4964479;28;20066;-68
2024/02/02 10:34:33;;;;;;;10.57;4.93;;;8.60;93.00;;;;;;4984863;28;20079;-68
2024/02/02 10:37:04;;;;;;;8.40;4.43;;;8.60;93.10;;;;;;4987039;28;20069;-69
2024/02/02 10:39:59;;;;;;;11.30;5.53;;;8.60;93.10;;;;;;4987715;28;20039;-69
2024/02/02 10:42:44;;;;;;;12.50;4.80;;;8.60;93.10;;;;;;5001270;28;20096;-68
2024/02/02 10:45:34;;;;;;;9.00;5.00;;;8.60;93.20;;;;;;4985527;28;20235;-68
2024/02/02 10:48:31;;;;;;;12.68;5.70;;;8.70;93.20;;;;;;4985636;28;20039;-68
2024/02/02 10:51:17;;;;;;;9.88;3.95;;;8.70;93.20;;;;;;4984640;28;20030;-68
2024/02/02 10:54:05;;;;;;;7.95;3.80;;;8.70;93.30;;;;;;4989696;28;20572;-69
2024/02/02 10:56:49;;;;;;;11.55;5.00;;;8.70;93.30;;;;;;4983657;28;20121;-68
2024/02/02 10:59:27;;;;;;;9.80;5.25;;;8.80;93.30;;;;;;4984574;28;21598;-68
2024/02/02 11:02:04;;;;;;;14.38;5.43;;;8.80;93.30;;;;;;4990939;28;20344;-68
2024/02/02 11:04:46;;;;;;;11.90;5.03;;;8.80;93.30;;;;;;4988819;28;20026;-68
2024/02/02 11:07:35;;;;;;;12.73;5.13;;;8.80;93.30;;;;;;4987555;28;20019;-68
2024/02/02 11:10:06;;;;;;;14.10;5.75;;;8.80;93.30;;;;;;4988133;28;20114;-68
2024/02/02 11:12:59;;;;;;;11.93;5.55;;;8.80;93.40;;;;;;4987248;28;20465;-68
2024/02/02 11:15:31;;;;;;;9.68;4.65;;;8.90;93.40;;;;;;4987546;28;20077;-68
2024/02/02 11:17:56;;;;;;;;;;;8.90;93.50;;;;;;4989372;28;20137;-69
2024/02/02 11:20:47;;;;;;;7.38;3.97;;;8.90;93.40;;;;;;4987824;28;20001;-69
2024/02/02 11:23:22;;;;;;;10.55;3.80;;;8.90;93.40;;;;;;4988099;28;20058;-68
2024/02/02 11:26:00;;;;;;;13.55;6.18;;;9.00;93.40;;;;;;4985440;28;20685;-68
2024/02/02 11:28:55;;;;;;;10.80;4.35;;;9.00;93.50;;;;;;4989390;28;20034;-68
2024/02/02 11:31:47;;;;;;;14.93;6.18;;;9.00;93.40;;;;;;5014590;28;20037;-68
2024/02/02 11:34:31;;;;;;;12.15;5.22;;;9.00;93.40;;;;;;5006251;28;20405;-68
2024/02/02 11:37:15;;;;;;;10.32;5.53;;;9.10;93.40;;;;;;4984383;28;20062;-68
2024/02/02 11:39:59;;;;;;;10.88;5.20;;;9.10;93.40;;;;;;4981863;28;20066;-67
2024/02/02 11:42:27;;;;;;;12.60;5.10;;;9.20;93.40;;;;;;4983084;28;20038;-69
2024/02/02 11:44:56;;;;;;;9.38;4.63;;;9.10;93.40;;;;;;4984666;28;20030;-68
2024/02/02 11:47:22;;;;;;;15.20;5.75;;;9.20;93.40;;;;;;4980593;28;20117;-68
2024/02/02 11:49:55;;;;;;;11.02;4.47;;;9.20;93.40;;;;;;4982138;28;20429;-69
2024/02/02 11:52:36;;;;;;;15.38;6.03;;;9.20;93.40;;;;;;4984125;28;20578;-68
2024/02/02 11:55:10;;;;;;;7.95;5.13;;;9.30;93.40;;;;;;4981965;28;20413;-68
2024/02/02 11:57:58;;;;;;;8.20;3.95;;;9.30;93.50;;;;;;4982149;28;20065;-68
2024/02/02 12:00:44;;;;;;;6.55;3.65;;;9.30;93.40;;;;;;4983866;28;20053;-68
2024/02/02 12:03:39;;;;;;;14.93;6.10;;;9.40;93.30;;;;;;5013213;28;20712;-68
2024/02/02 12:06:19;;;;;;;12.43;5.55;;;9.40;93.40;;;;;;4983803;28;20462;-68
2024/02/02 12:09:17;;;;;;;14.45;6.22;;;9.30;93.30;;;;;;5011749;28;20044;-67
2024/02/02 12:11:48;;;;;;;11.75;5.07;;;9.30;93.40;;;;;;4984384;28;20055;-66
2024/02/02 12:14:28;;;;;;;11.73;5.40;;;9.30;93.40;;;;;;4985164;28;20663;-67
2024/02/02 12:16:53;;;;;;;16.20;7.13;;;9.30;93.50;;;;;;4984878;28;20034;-67
2024/02/02 12:19:19;;;;;;;11.73;6.00;;;9.30;93.60;;;;;;4984531;28;20409;-68
2024/02/02 12:21:45;;;;;;;13.35;4.88;;;9.30;93.60;;;;;;4981163;28;20018;-68
2024/02/02 12:24:11;;;;;;;8.63;4.07;;;9.30;93.60;;;;;;4980543;28;20034;-68
2024/02/02 12:26:37;;;;;;;9.43;3.67;;;9.40;93.60;;;;;;4980900;28;20526;-68
2024/02/02 12:29:03;;;;;;;11.65;6.60;;;9.30;93.60;;;;;;4989853;28;20050;-68
2024/02/02 12:31:29;;;;;;;18.58;7.35;;;9.30;93.70;;;;;;4981385;28;20028;-68
2024/02/02 12:33:54;;;;;;;13.15;6.25;;;9.30;93.90;;;;;;4983516;28;20026;-68
2024/02/02 12:36:21;;;;;;;12.95;5.78;;;9.30;93.90;;;;;;4982817;28;20031;-68
2024/02/02 12:38:50;;;;;;;11.23;5.13;;;9.30;94.00;;;;;;4985446;28;20118;-68
2024/02/02 12:41:16;;;;;;;12.55;5.47;;;9.30;94.10;;;;;;4985031;28;20735;-68
2024/02/02 12:43:50;;;;;;;12.70;4.90;;;9.30;94.10;;;;;;4982971;28;20105;-67
2024/02/02 12:46:16;;;;;;;8.80;4.47;;;9.30;94.10;;;;;;4983685;28;20038;-68
2024/02/02 12:48:42;;;;;;;10.50;4.53;;;9.40;94.00;;;;;;4981480;28;20505;-68
2024/02/02 12:51:07;;;;;;;14.98;6.35;;;9.40;94.00;;;;;;4980759;28;20583;-68
2024/02/02 12:53:34;;;;;;;15.48;6.32;;;9.40;94.00;;;;;;4982316;28;20030;-68
2024/02/02 12:56:00;;;;;;;11.45;5.05;;;9.40;94.30;;;;;;4983313;28;20026;-68
2024/02/02 12:58:25;;;;;;;10.40;4.88;;;9.40;94.10;;;;;;4980731;28;20618;-68
2024/02/02 13:00:51;;;;;;;8.73;4.57;;;9.50;94.10;;;;;;4981437;28;20596;-68
2024/02/02 13:03:17;;;;;;;14.75;5.43;;;9.50;94.00;;;;;;4983134;28;20041;-68
2024/02/02 13:05:44;;;;;;;7.65;3.92;;;9.50;94.10;;;;;;4981955;28;20034;-68
2024/02/02 13:08:10;;;;;;;9.52;4.57;;;9.50;94.10;;;;;;4985316;28;20157;-68